createdAt,value
2022-08-01T00:02:47.597Z,4.63
2022-08-01T00:08:49.766Z,4.47
2022-08-01T00:14:51.840Z,4.50
2022-08-01T00:20:53.933Z,4.40
2022-08-01T00:26:55.920Z,3.40
2022-08-01T00:32:57.946Z,3.57
2022-08-01T00:38:59.911Z,4.03
2022-08-01T00:45:01.916Z,4.70
2022-08-01T00:51:06.393Z,5.00
2022-08-01T00:57:10.120Z,4.80
2022-08-01T01:03:12.817Z,4.13
2022-08-01T01:09:41.106Z,5.00
2022-08-01T01:16:03.260Z,5.20
2022-08-01T01:22:46.744Z,5.17
2022-08-01T01:29:30.137Z,4.97
2022-08-01T01:35:58.991Z,6.00
2022-08-01T01:42:02.726Z,4.77
2022-08-01T01:48:07.207Z,5.70
2022-08-01T01:54:10.816Z,5.30
2022-08-01T02:00:15.508Z,3.77
2022-08-01T02:06:17.730Z,3.10
2022-08-01T02:12:22.678Z,3.20
2022-08-01T02:18:25.005Z,3.30
2022-08-01T02:24:48.068Z,2.83
2022-08-01T02:30:51.362Z,3.67
2022-08-01T02:36:57.162Z,3.37
2022-08-01T02:43:03.069Z,3.23
2022-08-01T02:49:10.064Z,3.97
2022-08-01T02:55:14.989Z,3.10
2022-08-01T03:01:19.334Z,3.20
2022-08-01T03:07:24.962Z,2.97
2022-08-01T03:13:37.712Z,2.70
2022-08-01T03:19:41.839Z,2.50
2022-08-01T03:25:45.631Z,2.40
2022-08-01T03:31:48.895Z,2.60
2022-08-01T03:38:15.310Z,3.20
2022-08-01T03:44:23.936Z,2.80
2022-08-01T03:50:27.894Z,2.93
2022-08-01T03:56:33.009Z,3.20
2022-08-01T04:02:37.331Z,2.70
2022-08-01T04:08:41.168Z,3.40
2022-08-01T04:14:43.151Z,3.17
2022-08-01T04:20:47.093Z,2.90
2022-08-01T04:26:51.562Z,4.07
2022-08-01T04:32:58.572Z,3.03
2022-08-01T04:39:02.373Z,2.70
2022-08-01T04:45:06.336Z,2.57
2022-08-01T04:51:16.597Z,2.97
2022-08-01T04:57:18.569Z,3.20
2022-08-01T05:03:20.636Z,3.00
2022-08-01T05:09:22.608Z,3.10
2022-08-01T05:15:24.777Z,3.20
2022-08-01T05:21:27.349Z,2.37
2022-08-01T05:27:29.342Z,2.37
2022-08-01T05:33:33.166Z,2.57
2022-08-01T05:39:35.300Z,2.77
2022-08-01T05:45:37.888Z,2.60
2022-08-01T05:51:39.877Z,2.10
2022-08-01T05:57:41.832Z,2.70
2022-08-01T06:03:44.067Z,2.60
2022-08-01T06:09:46.004Z,2.63
2022-08-01T06:15:48.857Z,2.73
2022-08-01T06:21:50.820Z,2.17
2022-08-01T06:27:52.755Z,2.30
2022-08-01T06:33:54.769Z,2.40
2022-08-01T06:39:57.079Z,2.10
2022-08-01T06:45:59.032Z,1.90
2022-08-01T06:52:01.122Z,2.13
2022-08-01T06:58:03.361Z,1.90
2022-08-01T07:04:06.341Z,1.83
2022-08-01T07:10:09.684Z,1.43
2022-08-01T07:16:11.681Z,1.40
2022-08-01T07:22:15.058Z,1.53
2022-08-01T07:28:25.625Z,1.90
2022-08-01T07:34:27.648Z,1.23
2022-08-01T07:40:29.690Z,1.00
2022-08-01T07:46:31.895Z,1.10
2022-08-01T07:52:34.359Z,1.33
2022-08-01T07:58:36.501Z,1.10
2022-08-01T08:04:38.503Z,1.20
2022-08-01T08:10:40.586Z,1.17
2022-08-01T08:16:44.186Z,1.10
2022-08-01T08:22:46.189Z,1.40
2022-08-01T08:28:48.268Z,1.10
2022-08-01T08:34:50.287Z,1.10
2022-08-01T08:40:53.365Z,1.00
2022-08-01T08:46:58.735Z,1.30
2022-08-01T08:53:02.260Z,1.00
2022-08-01T08:59:08.921Z,1.00
2022-08-01T09:05:17.450Z,1.40
2022-08-01T09:11:23.028Z,1.20
2022-08-01T09:17:25.338Z,1.37
2022-08-01T09:23:40.719Z,1.20
2022-08-01T09:30:17.116Z,0.80
2022-08-01T09:36:25.140Z,1.20
2022-08-01T09:42:29.214Z,1.10
2022-08-01T09:48:33.624Z,0.90
2022-08-01T09:54:35.615Z,1.30
2022-08-01T10:00:45.391Z,1.20
2022-08-01T10:06:53.741Z,1.10
2022-08-01T10:13:00.622Z,0.80
2022-08-01T10:19:07.180Z,0.90
2022-08-01T10:25:19.063Z,0.80
2022-08-01T10:31:41.211Z,0.90
2022-08-01T10:37:57.522Z,0.90
2022-08-01T10:44:00.326Z,1.07
2022-08-01T10:50:30.820Z,0.97
2022-08-01T10:56:49.207Z,0.90
2022-08-01T11:03:04.475Z,0.90
2022-08-01T11:09:36.050Z,0.90
2022-08-01T11:15:50.044Z,0.87
2022-08-01T11:21:59.248Z,0.80
2022-08-01T11:28:28.645Z,0.87
2022-08-01T11:34:57.319Z,0.90
2022-08-01T11:41:15.486Z,1.00
2022-08-01T11:47:17.980Z,1.17
2022-08-01T11:53:24.053Z,1.10
2022-08-01T11:59:29.029Z,0.90
2022-08-01T12:05:44.874Z,1.10
2022-08-01T12:11:47.582Z,0.90
2022-08-01T12:17:59.914Z,1.10
2022-08-01T12:24:03.677Z,1.07
2022-08-01T12:30:15.437Z,1.20
2022-08-01T12:36:29.811Z,1.10
2022-08-01T12:42:32.840Z,1.00
2022-08-01T12:48:34.974Z,1.30
2022-08-01T12:55:12.246Z,1.20
2022-08-01T13:01:14.678Z,1.30
2022-08-01T13:07:16.927Z,1.50
2022-08-01T13:13:28.146Z,1.20
2022-08-01T13:19:48.094Z,1.17
2022-08-01T13:25:56.509Z,1.00
2022-08-01T13:32:00.101Z,1.07
2022-08-01T13:38:02.044Z,1.07
2022-08-01T13:44:04.159Z,1.40
2022-08-01T13:50:06.632Z,1.50
2022-08-01T13:56:08.645Z,1.30
2022-08-01T14:02:10.770Z,1.20
2022-08-01T14:08:13.050Z,1.40
2022-08-01T14:14:16.581Z,1.30
2022-08-01T14:20:20.668Z,1.30
2022-08-01T14:26:22.729Z,1.50
2022-08-01T14:32:28.540Z,2.20
2022-08-01T14:38:32.472Z,1.90
2022-08-01T14:44:36.067Z,1.70
2022-08-01T14:50:38.276Z,2.10
2022-08-01T14:56:40.313Z,2.10
2022-08-01T15:02:43.166Z,2.20
2022-08-01T15:08:45.673Z,2.80
2022-08-01T15:14:51.381Z,2.87
2022-08-01T15:20:53.357Z,2.43
2022-08-01T15:26:55.405Z,2.70
2022-08-01T15:32:57.371Z,2.90
2022-08-01T15:38:59.332Z,2.50
2022-08-01T15:45:02.032Z,2.20
2022-08-01T15:51:04.115Z,2.70
2022-08-01T15:57:06.208Z,2.40
2022-08-01T16:03:10.165Z,2.00
2022-08-01T16:09:19.108Z,2.70
2022-08-01T16:15:21.663Z,2.20
2022-08-01T16:21:25.032Z,2.43
2022-08-01T16:27:27.647Z,2.40
2022-08-01T16:33:51.534Z,2.43
2022-08-01T16:39:52.934Z,2.10
2022-08-01T16:45:58.330Z,2.30
2022-08-01T16:52:00.389Z,2.00
2022-08-01T16:58:02.911Z,2.13
2022-08-01T17:04:05.117Z,2.00
2022-08-01T17:10:08.878Z,2.80
2022-08-01T17:16:11.571Z,2.60
2022-08-01T17:22:13.741Z,2.43
2022-08-01T17:28:15.840Z,2.03
2022-08-01T17:34:17.869Z,2.37
2022-08-01T17:40:39.622Z,2.80
2022-08-01T17:46:41.824Z,3.87
2022-08-01T17:52:43.931Z,2.10
2022-08-01T17:58:51.836Z,2.40
2022-08-01T18:04:54.434Z,2.43
2022-08-01T18:10:57.646Z,2.70
2022-08-01T18:16:59.601Z,2.90
2022-08-01T18:23:01.583Z,2.90
2022-08-01T18:29:03.592Z,3.40
2022-08-01T18:35:14.026Z,2.80
2022-08-01T18:41:16.401Z,2.97
2022-08-01T18:47:18.733Z,2.93
2022-08-01T18:53:22.283Z,3.20
2022-08-01T18:59:24.240Z,2.70
2022-08-01T19:05:26.210Z,3.00
2022-08-01T19:11:28.248Z,4.27
2022-08-01T19:17:30.340Z,3.70
2022-08-01T19:23:54.514Z,4.60
2022-08-01T19:30:01.120Z,4.90
2022-08-01T19:36:03.761Z,5.13
2022-08-01T19:42:06.235Z,5.03
2022-08-01T19:48:08.409Z,5.70
2022-08-01T19:54:12.433Z,4.97
2022-08-01T20:00:27.698Z,5.70
2022-08-01T20:06:31.221Z,6.00
2022-08-01T20:12:34.552Z,6.53
2022-08-01T20:18:36.559Z,6.00
2022-08-01T20:24:43.436Z,6.50
2022-08-01T20:30:46.244Z,6.13
2022-08-01T20:36:56.642Z,5.80
2022-08-01T20:42:59.707Z,6.37
2022-08-01T20:49:01.840Z,7.10
2022-08-01T20:55:05.406Z,6.43
2022-08-01T21:01:09.361Z,8.97
2022-08-01T21:07:28.001Z,7.57
2022-08-01T21:13:45.671Z,6.77
2022-08-01T21:19:54.895Z,6.30
2022-08-01T21:26:00.178Z,6.83
2022-08-01T21:32:14.499Z,6.10
2022-08-01T21:38:18.171Z,7.33
2022-08-01T21:44:28.969Z,7.17
2022-08-01T21:50:54.766Z,6.50
2022-08-01T21:57:17.280Z,9.70
2022-08-01T22:03:35.903Z,6.83
2022-08-01T22:09:43.408Z,7.40
2022-08-01T22:15:45.507Z,7.00
2022-08-01T22:21:48.406Z,5.33
2022-08-01T22:28:05.487Z,5.30
2022-08-01T22:34:14.102Z,4.50
2022-08-01T22:40:16.158Z,4.07
2022-08-01T22:46:50.684Z,3.70
2022-08-01T22:53:13.511Z,4.10
2022-08-01T22:59:26.703Z,4.60
2022-08-01T23:06:07.107Z,4.40
2022-08-01T23:12:10.759Z,3.93
2022-08-01T23:18:13.973Z,4.20
2022-08-01T23:24:16.501Z,4.90
2022-08-01T23:30:18.590Z,5.70
2022-08-01T23:36:20.558Z,5.40
2022-08-01T23:42:22.622Z,6.60
2022-08-01T23:48:24.609Z,4.30
2022-08-01T23:54:27.621Z,5.10
